createdAt,value
2018-09-26T00:00:24.708Z,7.17
2018-09-26T00:01:24.704Z,7.14
2018-09-26T00:02:24.697Z,7.17
2018-09-26T00:03:24.690Z,7.14
2018-09-26T00:04:24.684Z,7.15
2018-09-26T00:05:24.679Z,7.11
2018-09-26T00:06:24.672Z,7.03
2018-09-26T00:07:24.667Z,7.10
2018-09-26T00:08:24.712Z,7.03
2018-09-26T00:09:24.655Z,6.99
2018-09-26T00:10:24.647Z,6.93
2018-09-26T00:11:24.641Z,7.05
2018-09-26T00:12:24.637Z,6.97
2018-09-26T00:13:24.629Z,6.92
2018-09-26T00:14:24.622Z,6.89
2018-09-26T00:15:24.618Z,6.96
2018-09-26T00:16:24.610Z,6.93
2018-09-26T00:17:24.606Z,7.06
2018-09-26T00:18:24.598Z,7.02
2018-09-26T00:19:24.594Z,7.05
2018-09-26T00:20:24.587Z,7.11
2018-09-26T00:21:24.581Z,7.02
2018-09-26T00:22:24.574Z,7.10
2018-09-26T00:23:24.568Z,7.05
2018-09-26T00:24:24.563Z,7.13
2018-09-26T00:25:24.558Z,7.05
2018-09-26T00:26:24.549Z,7.07
2018-09-26T00:27:24.544Z,7.06
2018-09-26T00:28:24.538Z,7.03
2018-09-26T00:29:24.531Z,7.03
2018-09-26T00:30:24.525Z,7.06
2018-09-26T00:31:24.519Z,6.99
2018-09-26T00:32:24.513Z,6.89
2018-09-26T00:33:24.506Z,6.84
2018-09-26T00:34:24.499Z,6.93
2018-09-26T00:35:24.493Z,6.88
2018-09-26T00:36:24.489Z,6.92
2018-09-26T00:37:24.494Z,6.88
2018-09-26T00:38:24.474Z,6.95
2018-09-26T00:39:24.468Z,6.96
2018-09-26T00:40:24.462Z,6.95
2018-09-26T00:41:24.456Z,6.93
2018-09-26T00:42:24.449Z,6.89
2018-09-26T00:43:24.442Z,6.88
2018-09-26T00:44:24.438Z,6.87
2018-09-26T00:45:24.431Z,6.88
2018-09-26T00:46:24.425Z,6.87
2018-09-26T00:47:24.417Z,6.88
2018-09-26T00:48:24.412Z,6.88
2018-09-26T00:49:24.405Z,6.92
2018-09-26T00:50:24.400Z,6.92
2018-09-26T00:51:24.397Z,6.93
2018-09-26T00:52:24.387Z,7.05
2018-09-26T00:53:24.385Z,7.05
2018-09-26T00:54:24.374Z,7.07
2018-09-26T00:55:24.368Z,7.13
2018-09-26T00:56:24.362Z,7.20
2018-09-26T00:57:24.356Z,7.18
2018-09-26T00:58:24.348Z,7.21
2018-09-26T00:59:24.343Z,7.17
2018-09-26T01:00:24.335Z,7.13
2018-09-26T01:01:24.331Z,7.17
2018-09-26T01:02:24.322Z,7.25
2018-09-26T01:03:24.316Z,7.29
2018-09-26T01:04:24.311Z,7.23
2018-09-26T01:05:24.305Z,7.31
2018-09-26T01:06:24.297Z,7.24
2018-09-26T01:07:24.291Z,7.28
2018-09-26T01:08:24.286Z,7.25
2018-09-26T01:09:24.280Z,7.24
2018-09-26T01:10:24.272Z,7.21
2018-09-26T01:11:24.267Z,7.20
2018-09-26T01:12:24.259Z,7.10
2018-09-26T01:13:24.253Z,7.10
2018-09-26T01:14:24.247Z,7.15
2018-09-26T01:15:24.245Z,7.18
2018-09-26T01:16:24.236Z,7.17
2018-09-26T01:17:24.229Z,7.10
2018-09-26T01:18:24.220Z,7.14
2018-09-26T01:19:24.214Z,7.21
2018-09-26T01:20:24.208Z,7.10
2018-09-26T01:21:24.202Z,7.07
2018-09-26T01:22:24.196Z,7.00
2018-09-26T01:23:24.190Z,6.89
2018-09-26T01:24:24.183Z,6.93
2018-09-26T01:25:24.178Z,6.88
2018-09-26T01:26:24.175Z,6.85
2018-09-26T01:27:24.171Z,6.92
2018-09-26T01:28:24.157Z,6.92
2018-09-26T01:29:24.151Z,6.88
2018-09-26T01:30:24.145Z,6.88
2018-09-26T01:31:24.138Z,6.84
2018-09-26T01:32:24.132Z,6.78
2018-09-26T01:33:24.127Z,6.77
2018-09-26T01:34:24.121Z,6.79
2018-09-26T01:35:24.112Z,6.70
2018-09-26T01:36:24.108Z,6.67
2018-09-26T01:37:24.100Z,6.74
2018-09-26T01:38:24.094Z,6.72
2018-09-26T01:39:24.087Z,6.81
2018-09-26T01:40:24.080Z,6.81
2018-09-26T01:41:24.102Z,6.79
2018-09-26T01:42:24.067Z,6.67
2018-09-26T01:43:24.062Z,6.75
2018-09-26T01:44:24.055Z,6.70
2018-09-26T01:45:24.049Z,6.63
2018-09-26T01:46:24.041Z,6.66
2018-09-26T01:47:24.036Z,6.72
2018-09-26T01:48:24.030Z,6.70
2018-09-26T01:49:24.024Z,6.69
2018-09-26T01:50:24.017Z,6.64
2018-09-26T01:51:24.010Z,6.69
2018-09-26T01:52:24.004Z,6.72
2018-09-26T01:53:23.997Z,6.67
2018-09-26T01:54:23.989Z,6.72
2018-09-26T01:55:23.983Z,6.70
2018-09-26T01:56:23.980Z,6.72
2018-09-26T01:57:23.971Z,6.85
2018-09-26T01:58:23.963Z,6.88
2018-09-26T01:59:23.959Z,6.92
2018-09-26T02:00:23.952Z,6.88
2018-09-26T02:01:23.946Z,6.88
2018-09-26T02:02:23.937Z,6.88
2018-09-26T02:03:23.931Z,6.82
2018-09-26T02:04:23.926Z,6.85
2018-09-26T02:05:23.918Z,6.92
2018-09-26T02:06:23.911Z,6.88
2018-09-26T02:07:23.904Z,6.84
2018-09-26T02:08:23.898Z,6.87
2018-09-26T02:09:23.893Z,6.84
2018-09-26T02:10:23.886Z,6.78
2018-09-26T02:11:23.878Z,6.77
2018-09-26T02:12:23.873Z,6.84
2018-09-26T02:13:23.866Z,6.84
2018-09-26T02:14:23.860Z,6.84
2018-09-26T02:15:23.852Z,6.84
2018-09-26T02:16:23.846Z,6.77
2018-09-26T02:17:23.839Z,6.79
2018-09-26T02:18:23.833Z,6.70
2018-09-26T02:19:23.827Z,6.67
2018-09-26T02:20:23.821Z,6.70
2018-09-26T02:21:23.814Z,6.67
2018-09-26T02:22:23.807Z,6.67
2018-09-26T02:23:23.801Z,6.77
2018-09-26T02:24:23.800Z,6.77
2018-09-26T02:25:23.792Z,6.62
2018-09-26T02:26:23.780Z,6.69
2018-09-26T02:27:23.775Z,6.67
2018-09-26T02:28:23.768Z,6.74
2018-09-26T02:29:23.761Z,6.66
2018-09-26T02:30:23.754Z,6.59
2018-09-26T02:31:23.750Z,6.62
2018-09-26T02:32:23.741Z,6.67
2018-09-26T02:33:23.736Z,6.64
2018-09-26T02:34:23.728Z,6.72
2018-09-26T02:35:23.724Z,6.62
2018-09-26T02:36:23.715Z,6.56
2018-09-26T02:37:23.709Z,6.59
2018-09-26T02:38:23.701Z,6.54
2018-09-26T02:39:23.696Z,6.54
2018-09-26T02:40:23.689Z,6.59
2018-09-26T02:41:23.683Z,6.64
2018-09-26T02:42:23.676Z,6.62
2018-09-26T02:43:23.668Z,6.62
2018-09-26T02:44:23.663Z,6.63
2018-09-26T02:45:23.656Z,6.67
2018-09-26T02:46:23.649Z,6.63
2018-09-26T02:47:23.642Z,6.56
2018-09-26T02:48:23.634Z,6.52
2018-09-26T02:49:23.629Z,6.56
2018-09-26T02:50:23.621Z,6.60
2018-09-26T02:51:23.620Z,6.56
2018-09-26T02:52:23.608Z,6.51
2018-09-26T02:53:23.602Z,6.52
2018-09-26T02:54:23.595Z,6.52
2018-09-26T02:55:23.589Z,6.48
2018-09-26T02:56:23.585Z,6.51
2018-09-26T02:57:23.575Z,6.48
2018-09-26T02:58:23.570Z,6.48
2018-09-26T02:59:23.563Z,6.44
2018-09-26T03:00:23.555Z,6.54
2018-09-26T03:01:23.548Z,6.56
2018-09-26T03:02:23.542Z,6.48
2018-09-26T03:03:23.536Z,6.52
2018-09-26T03:04:23.528Z,6.57
2018-09-26T03:05:23.574Z,6.52
2018-09-26T03:06:23.517Z,6.52
2018-09-26T03:07:23.509Z,6.48
2018-09-26T03:08:23.503Z,6.57
2018-09-26T03:09:23.495Z,6.48
2018-09-26T03:10:23.489Z,6.45
2018-09-26T03:11:23.481Z,6.45
2018-09-26T03:12:23.477Z,6.51
2018-09-26T03:13:23.470Z,6.48
2018-09-26T03:14:23.462Z,6.48
2018-09-26T03:15:23.455Z,6.45
2018-09-26T03:16:23.449Z,6.45
2018-09-26T03:17:23.493Z,6.52
2018-09-26T03:18:23.435Z,6.59
2018-09-26T03:19:23.430Z,6.56
2018-09-26T03:20:23.424Z,6.56
2018-09-26T03:21:23.417Z,6.59
2018-09-26T03:22:23.409Z,6.56
2018-09-26T03:23:23.403Z,6.63
2018-09-26T03:24:23.397Z,6.59
2018-09-26T03:25:23.390Z,6.54
2018-09-26T03:26:23.383Z,6.48
2018-09-26T03:27:23.396Z,6.46
2018-09-26T03:28:23.370Z,6.59
2018-09-26T03:29:23.363Z,6.48
2018-09-26T03:30:23.359Z,6.60
2018-09-26T03:31:23.350Z,6.57
2018-09-26T03:32:23.344Z,6.54
2018-09-26T03:33:23.337Z,6.52
2018-09-26T03:34:23.330Z,6.60
2018-09-26T03:35:23.322Z,6.60
2018-09-26T03:36:23.316Z,6.57
2018-09-26T03:37:23.309Z,6.67
2018-09-26T03:38:23.303Z,6.56
2018-09-26T03:39:23.295Z,6.57
2018-09-26T03:40:23.288Z,6.57
2018-09-26T03:41:23.286Z,6.60
2018-09-26T03:42:23.276Z,6.57
2018-09-26T03:43:23.268Z,6.54
2018-09-26T03:44:23.262Z,6.60
2018-09-26T03:45:23.256Z,6.45
2018-09-26T03:46:23.250Z,6.54
2018-09-26T03:47:23.242Z,6.41
2018-09-26T03:48:23.241Z,6.45
2018-09-26T03:49:23.230Z,6.38
2018-09-26T03:50:23.223Z,6.46
2018-09-26T03:51:23.215Z,6.41
2018-09-26T03:52:23.210Z,6.35
2018-09-26T03:53:23.202Z,6.38
2018-09-26T03:54:23.198Z,6.38
2018-09-26T03:55:23.189Z,6.35
2018-09-26T03:56:23.182Z,6.36
2018-09-26T03:57:23.175Z,6.44
2018-09-26T03:58:23.169Z,6.36
2018-09-26T03:59:23.162Z,6.27
2018-09-26T04:00:23.155Z,6.27
2018-09-26T04:01:23.148Z,6.30
2018-09-26T04:02:23.142Z,6.31
2018-09-26T04:03:23.136Z,6.28
2018-09-26T04:04:23.128Z,6.27
2018-09-26T04:05:23.124Z,6.20
2018-09-26T04:06:23.114Z,6.30
2018-09-26T04:07:23.110Z,6.24
2018-09-26T04:08:23.102Z,6.26
2018-09-26T04:09:23.096Z,6.17
2018-09-26T04:10:23.091Z,6.11
2018-09-26T04:11:23.081Z,6.17
2018-09-26T04:12:23.073Z,6.20
2018-09-26T04:13:23.067Z,6.33
2018-09-26T04:14:23.061Z,6.27
2018-09-26T04:15:23.054Z,6.27
2018-09-26T04:16:23.047Z,6.45
2018-09-26T04:17:23.040Z,6.38
2018-09-26T04:18:23.036Z,6.30
2018-09-26T04:19:23.027Z,6.30
2018-09-26T04:20:23.027Z,6.24
2018-09-26T04:21:23.016Z,6.27
2018-09-26T04:22:23.007Z,6.24
2018-09-26T04:23:23.001Z,6.11
2018-09-26T04:24:22.993Z,6.12
2018-09-26T04:25:22.986Z,6.05
2018-09-26T04:26:23.005Z,6.08
2018-09-26T04:27:23.019Z,6.12
2018-09-26T04:28:22.966Z,6.12
2018-09-26T04:29:22.959Z,6.14
2018-09-26T04:30:22.970Z,6.17
2018-09-26T04:31:22.945Z,6.07
2018-09-26T04:32:22.978Z,6.11
2018-09-26T04:33:23.107Z,6.08
2018-09-26T04:34:22.923Z,6.01
2018-09-26T04:35:22.919Z,5.97
2018-09-26T04:36:22.911Z,6.01
2018-09-26T04:37:22.905Z,5.99
2018-09-26T04:38:22.900Z,6.01
2018-09-26T04:39:22.889Z,6.01
2018-09-26T04:40:22.883Z,6.02
2018-09-26T04:41:22.877Z,6.04
2018-09-26T04:42:22.874Z,5.99
2018-09-26T04:43:22.931Z,5.98
2018-09-26T04:44:22.856Z,5.97
2018-09-26T04:45:22.850Z,5.99
2018-09-26T04:46:22.841Z,6.04
2018-09-26T04:47:22.834Z,6.01
2018-09-26T04:48:22.827Z,6.02
2018-09-26T04:49:22.822Z,6.02
2018-09-26T04:50:22.816Z,5.97
2018-09-26T04:51:22.807Z,6.04
2018-09-26T04:52:22.801Z,6.01
2018-09-26T04:53:22.794Z,6.01
2018-09-26T04:54:22.787Z,5.98
2018-09-26T04:55:22.778Z,6.04
2018-09-26T04:56:22.772Z,5.97
2018-09-26T04:57:22.767Z,5.90
2018-09-26T04:58:22.815Z,5.98
2018-09-26T04:59:22.750Z,5.90
2018-09-26T05:00:22.745Z,5.83
2018-09-26T05:01:22.752Z,5.90
2018-09-26T05:02:22.732Z,5.83
2018-09-26T05:03:22.726Z,5.87
2018-09-26T05:04:22.719Z,5.90
2018-09-26T05:05:22.713Z,6.01
2018-09-26T05:06:22.704Z,6.05
2018-09-26T05:07:22.697Z,6.02
2018-09-26T05:08:22.788Z,6.05
2018-09-26T05:09:22.683Z,6.12
2018-09-26T05:10:22.676Z,6.01
2018-09-26T05:11:22.670Z,6.01
2018-09-26T05:12:22.662Z,6.17
2018-09-26T05:13:22.656Z,6.14
2018-09-26T05:14:22.653Z,6.09
2018-09-26T05:15:22.642Z,6.12
2018-09-26T05:16:22.635Z,6.11
2018-09-26T05:17:22.627Z,6.12
2018-09-26T05:18:22.620Z,6.09
2018-09-26T05:19:22.614Z,6.05
2018-09-26T05:20:22.608Z,6.12
2018-09-26T05:21:22.600Z,6.08
2018-09-26T05:22:22.595Z,6.22
2018-09-26T05:23:22.588Z,6.26
2018-09-26T05:24:22.580Z,6.20
2018-09-26T05:25:22.573Z,6.30
2018-09-26T05:26:22.565Z,6.30
2018-09-26T05:27:22.561Z,6.27
2018-09-26T05:28:22.551Z,6.27
2018-09-26T05:29:22.544Z,6.28
2018-09-26T05:30:22.571Z,6.27
2018-09-26T05:31:22.530Z,6.31
2018-09-26T05:32:22.523Z,6.27
2018-09-26T05:33:22.517Z,6.28
2018-09-26T05:34:22.510Z,6.22
2018-09-26T05:35:22.502Z,6.28
2018-09-26T05:36:22.497Z,6.26
2018-09-26T05:37:22.489Z,6.24
2018-09-26T05:38:22.483Z,6.19
2018-09-26T05:39:22.474Z,6.31
2018-09-26T05:40:22.468Z,6.24
2018-09-26T05:41:22.461Z,6.33
2018-09-26T05:42:22.457Z,6.45
2018-09-26T05:43:22.448Z,6.54
2018-09-26T05:44:22.441Z,6.45
2018-09-26T05:45:22.434Z,6.54
2018-09-26T05:46:22.427Z,6.60
2018-09-26T05:47:22.420Z,6.62
2018-09-26T05:48:22.413Z,6.56
2018-09-26T05:49:22.406Z,6.54
2018-09-26T05:50:22.398Z,6.59
2018-09-26T05:51:22.393Z,6.56
2018-09-26T05:52:22.386Z,6.57
2018-09-26T05:53:22.406Z,6.60
2018-09-26T05:54:22.371Z,6.48
2018-09-26T05:55:22.365Z,6.51
2018-09-26T05:56:22.361Z,6.57
2018-09-26T05:57:22.352Z,6.60
2018-09-26T05:58:22.344Z,6.60
2018-09-26T05:59:22.336Z,6.63
2018-09-26T06:00:22.331Z,6.63
2018-09-26T06:01:22.324Z,6.64
2018-09-26T06:02:22.316Z,6.66
2018-09-26T06:03:22.310Z,6.75
2018-09-26T06:04:22.303Z,6.79
2018-09-26T06:05:22.342Z,6.75
2018-09-26T06:06:22.289Z,6.75
2018-09-26T06:07:22.282Z,6.81
2018-09-26T06:08:22.277Z,6.77
2018-09-26T06:09:22.269Z,6.82
2018-09-26T06:10:22.262Z,6.89
2018-09-26T06:11:22.308Z,6.95
2018-09-26T06:12:22.250Z,6.92
2018-09-26T06:13:22.242Z,6.99
2018-09-26T06:14:22.237Z,7.07
2018-09-26T06:15:22.228Z,7.05
2018-09-26T06:16:22.224Z,7.17
2018-09-26T06:17:22.217Z,7.13
2018-09-26T06:18:22.210Z,7.15
2018-09-26T06:19:22.203Z,7.25
2018-09-26T06:20:22.197Z,7.20
2018-09-26T06:21:22.190Z,7.28
2018-09-26T06:22:22.183Z,7.23
2018-09-26T06:23:22.177Z,7.21
2018-09-26T06:24:22.170Z,7.25
2018-09-26T06:25:22.165Z,7.25
2018-09-26T06:26:22.158Z,7.32
2018-09-26T06:27:22.152Z,7.33
2018-09-26T06:28:22.146Z,7.42
2018-09-26T06:29:22.139Z,7.51
2018-09-26T06:30:22.133Z,7.51
2018-09-26T06:31:22.125Z,7.56
2018-09-26T06:32:22.118Z,7.57
2018-09-26T06:33:22.112Z,7.72
2018-09-26T06:34:22.105Z,7.80
2018-09-26T06:35:22.100Z,7.72
2018-09-26T06:36:22.093Z,7.67
2018-09-26T06:37:22.088Z,7.98
2018-09-26T06:38:22.080Z,7.90
2018-09-26T06:39:22.075Z,7.80
2018-09-26T06:40:22.087Z,7.97
2018-09-26T06:41:22.063Z,8.00
2018-09-26T06:42:22.059Z,8.05
2018-09-26T06:43:22.052Z,8.06
2018-09-26T06:44:22.044Z,8.09
2018-09-26T06:45:22.039Z,8.19
2018-09-26T06:46:22.031Z,8.18
2018-09-26T06:47:22.078Z,8.23
2018-09-26T06:48:22.020Z,8.24
2018-09-26T06:49:22.015Z,8.18
2018-09-26T06:50:22.007Z,8.36
2018-09-26T06:51:22.000Z,8.41
2018-09-26T06:52:21.994Z,8.56
2018-09-26T06:53:21.989Z,8.55
2018-09-26T06:54:21.983Z,8.58
2018-09-26T06:55:21.982Z,8.66
2018-09-26T06:56:21.971Z,8.66
2018-09-26T06:57:21.969Z,8.64
2018-09-26T06:58:21.961Z,8.76
2018-09-26T06:59:21.959Z,8.79
2018-09-26T07:00:21.978Z,8.85
2018-09-26T07:01:21.943Z,8.82
2018-09-26T07:02:21.937Z,8.87
2018-09-26T07:03:21.932Z,8.97
2018-09-26T07:04:21.926Z,9.10
2018-09-26T07:05:21.922Z,9.14
2018-09-26T07:06:21.919Z,9.21
2018-09-26T07:07:21.909Z,9.19
2018-09-26T07:08:21.903Z,9.18
2018-09-26T07:09:21.898Z,9.39
2018-09-26T07:10:21.895Z,9.26
2018-09-26T07:11:21.888Z,9.39
2018-09-26T07:12:21.883Z,9.37
2018-09-26T07:13:21.877Z,9.40
2018-09-26T07:14:21.870Z,9.51
2018-09-26T07:15:21.865Z,9.51
2018-09-26T07:16:21.860Z,9.56
2018-09-26T07:17:21.856Z,9.64
2018-09-26T07:18:21.850Z,9.72
2018-09-26T07:19:21.845Z,9.69
2018-09-26T07:20:21.839Z,9.69
2018-09-26T07:21:21.836Z,9.82
2018-09-26T07:22:21.828Z,9.87
2018-09-26T07:23:21.826Z,9.92
2018-09-26T07:24:21.822Z,9.91
2018-09-26T07:25:21.816Z,9.92
2018-09-26T07:26:21.809Z,9.99
2018-09-26T07:27:21.804Z,10.04
2018-09-26T07:28:21.800Z,10.02
2018-09-26T07:29:21.795Z,10.09
2018-09-26T07:30:21.790Z,10.15
2018-09-26T07:31:21.822Z,10.23
2018-09-26T07:32:21.780Z,10.23
2018-09-26T07:33:21.777Z,10.23
2018-09-26T07:34:21.771Z,10.31
2018-09-26T07:35:21.765Z,10.34
2018-09-26T07:36:21.763Z,10.31
2018-09-26T07:37:21.758Z,10.42
2018-09-26T07:38:21.800Z,10.35
2018-09-26T07:39:21.747Z,10.37
2018-09-26T07:40:21.743Z,10.44
2018-09-26T07:41:21.741Z,10.59
2018-09-26T07:42:21.734Z,10.64
2018-09-26T07:43:21.730Z,10.63
2018-09-26T07:44:21.725Z,10.71
2018-09-26T07:45:21.786Z,10.71
2018-09-26T07:46:21.716Z,10.89
2018-09-26T07:47:21.711Z,10.86
2018-09-26T07:48:21.708Z,10.89
2018-09-26T07:49:21.703Z,10.89
2018-09-26T07:50:21.698Z,10.78
2018-09-26T07:51:21.695Z,10.92
2018-09-26T07:52:21.690Z,11.02
2018-09-26T07:53:21.691Z,10.93
2018-09-26T07:54:21.682Z,10.92
2018-09-26T07:55:21.678Z,10.96
2018-09-26T07:56:21.674Z,10.99
2018-09-26T07:57:21.670Z,11.02
2018-09-26T07:58:21.664Z,11.10
2018-09-26T07:59:21.662Z,11.15
2018-09-26T08:00:21.655Z,11.18
2018-09-26T08:01:21.655Z,11.26
2018-09-26T08:02:21.649Z,11.33
2018-09-26T08:03:21.646Z,11.25
2018-09-26T08:04:21.642Z,11.35
2018-09-26T08:05:21.649Z,11.36
2018-09-26T08:06:21.632Z,11.44
2018-09-26T08:07:21.629Z,11.47
2018-09-26T08:08:21.626Z,11.45
2018-09-26T08:09:21.623Z,11.55
2018-09-26T08:10:21.616Z,11.66
2018-09-26T08:11:21.624Z,11.65
2018-09-26T08:12:21.608Z,11.62
2018-09-26T08:13:21.606Z,11.70
2018-09-26T08:14:21.601Z,11.84
2018-09-26T08:15:21.598Z,11.86
2018-09-26T08:16:21.595Z,11.94
2018-09-26T08:17:21.590Z,12.07
2018-09-26T08:18:21.611Z,12.07
2018-09-26T08:19:21.586Z,12.21
2018-09-26T08:20:21.580Z,12.10
2018-09-26T08:21:21.576Z,12.12
2018-09-26T08:22:21.571Z,12.06
2018-09-26T08:23:21.569Z,12.18
2018-09-26T08:24:21.626Z,12.15
2018-09-26T08:25:21.563Z,12.18
2018-09-26T08:26:21.560Z,12.27
2018-09-26T08:27:21.555Z,12.25
2018-09-26T08:28:21.552Z,12.31
2018-09-26T08:29:21.548Z,12.36
2018-09-26T08:30:21.552Z,12.37
2018-09-26T08:31:21.543Z,12.28
2018-09-26T08:32:21.539Z,12.42
2018-09-26T08:33:21.536Z,12.36
2018-09-26T08:34:21.532Z,12.39
2018-09-26T08:35:21.530Z,12.57
2018-09-26T08:36:21.527Z,12.61
2018-09-26T08:37:21.523Z,12.64
2018-09-26T08:38:21.519Z,12.62
2018-09-26T08:39:21.517Z,12.64
2018-09-26T08:40:21.514Z,12.58
2018-09-26T08:41:21.512Z,12.72
2018-09-26T08:42:21.511Z,12.82
2018-09-26T08:43:21.505Z,13.05
2018-09-26T08:44:21.502Z,12.97
2018-09-26T08:45:21.500Z,12.93
2018-09-26T08:46:21.496Z,13.00
2018-09-26T08:47:21.495Z,13.19
2018-09-26T08:48:21.493Z,13.28
2018-09-26T08:49:21.490Z,13.16
2018-09-26T08:50:21.485Z,13.08
2018-09-26T08:51:21.484Z,13.19
2018-09-26T08:52:21.481Z,13.25
2018-09-26T08:53:21.479Z,13.33
2018-09-26T08:54:21.476Z,13.46
2018-09-26T08:55:21.474Z,13.49
2018-09-26T08:56:21.471Z,13.78
2018-09-26T08:57:21.470Z,13.93
2018-09-26T08:58:21.465Z,13.93
2018-09-26T08:59:21.462Z,13.75
2018-09-26T09:00:21.463Z,13.90
2018-09-26T09:01:21.461Z,14.14
2018-09-26T09:02:21.457Z,14.62
2018-09-26T09:03:21.459Z,14.89
2018-09-26T09:04:21.456Z,14.99
2018-09-26T09:05:21.455Z,14.66
2018-09-26T09:06:21.515Z,15.03
2018-09-26T09:07:21.458Z,15.24
2018-09-26T09:08:21.452Z,15.28
2018-09-26T09:09:21.453Z,15.02
2018-09-26T09:10:21.451Z,15.25
2018-09-26T09:11:21.453Z,14.92
2018-09-26T09:12:21.453Z,14.86
2018-09-26T09:13:21.454Z,14.97
2018-09-26T09:14:21.506Z,14.84
2018-09-26T09:15:21.454Z,15.10
2018-09-26T09:16:21.459Z,15.21
2018-09-26T09:17:21.457Z,15.49
2018-09-26T09:18:21.464Z,15.37
2018-09-26T09:19:21.460Z,15.54
2018-09-26T09:20:21.524Z,15.86
2018-09-26T09:21:21.461Z,16.02
2018-09-26T09:22:21.461Z,15.91
2018-09-26T09:23:21.466Z,15.84
2018-09-26T09:24:21.464Z,15.39
2018-09-26T09:25:21.468Z,15.06
2018-09-26T09:26:21.525Z,15.02
2018-09-26T09:27:21.530Z,14.60
2018-09-26T09:28:21.472Z,14.54
2018-09-26T09:29:21.474Z,14.60
2018-09-26T09:30:21.475Z,14.85
2018-09-26T09:31:21.477Z,15.07
2018-09-26T09:32:21.499Z,15.29
2018-09-26T09:33:21.481Z,15.52
2018-09-26T09:34:21.482Z,15.58
2018-09-26T09:35:21.483Z,15.88
2018-09-26T09:36:21.523Z,15.88
2018-09-26T09:37:21.487Z,15.92
2018-09-26T09:38:21.540Z,15.90
2018-09-26T09:39:21.491Z,15.97
2018-09-26T09:40:21.491Z,16.00
2018-09-26T09:41:21.494Z,15.64
2018-09-26T09:42:21.494Z,15.59
2018-09-26T09:43:21.497Z,15.44
2018-09-26T09:44:21.521Z,15.62
2018-09-26T09:45:21.502Z,15.61
2018-09-26T09:46:21.502Z,15.44
2018-09-26T09:47:21.509Z,15.27
2018-09-26T09:48:21.506Z,15.35
2018-09-26T09:49:21.509Z,15.37
2018-09-26T09:50:21.542Z,15.31
2018-09-26T09:51:21.513Z,15.55
2018-09-26T09:52:21.514Z,15.21
2018-09-26T09:53:21.517Z,15.29
2018-09-26T09:54:21.518Z,15.58
2018-09-26T09:55:21.520Z,15.88
2018-09-26T09:56:21.553Z,15.94
2018-09-26T09:57:21.524Z,16.10
2018-09-26T09:58:21.526Z,15.83
2018-09-26T09:59:21.526Z,15.49
2018-09-26T10:00:21.528Z,15.17
2018-09-26T10:01:21.533Z,14.97
2018-09-26T10:02:21.641Z,14.94
2018-09-26T10:03:21.536Z,14.82
2018-09-26T10:04:21.538Z,14.73
2018-09-26T10:05:21.537Z,14.79
2018-09-26T10:06:21.538Z,14.65
2018-09-26T10:07:21.540Z,14.79
2018-09-26T10:08:21.599Z,14.79
2018-09-26T10:09:21.541Z,14.97
2018-09-26T10:10:21.542Z,14.97
2018-09-26T10:11:21.543Z,14.92
2018-09-26T10:12:21.544Z,15.02
2018-09-26T10:13:21.545Z,15.18
2018-09-26T10:14:21.560Z,15.39
2018-09-26T10:15:21.549Z,15.36
2018-09-26T10:16:21.550Z,15.25
2018-09-26T10:17:21.572Z,15.25
2018-09-26T10:18:21.552Z,15.35
2018-09-26T10:19:21.551Z,15.36
2018-09-26T10:20:21.613Z,15.47
2018-09-26T10:21:21.552Z,15.64
2018-09-26T10:22:21.551Z,15.97
2018-09-26T10:23:21.556Z,16.02
2018-09-26T10:24:21.555Z,16.08
2018-09-26T10:25:21.555Z,16.10
2018-09-26T10:26:21.630Z,16.28
2018-09-26T10:27:21.557Z,16.51
2018-09-26T10:28:21.558Z,16.15
2018-09-26T10:29:21.560Z,15.82
2018-09-26T10:30:21.560Z,15.79
2018-09-26T10:31:21.563Z,15.54
2018-09-26T10:32:21.643Z,15.55
2018-09-26T10:33:21.566Z,15.59
2018-09-26T10:34:21.564Z,15.57
2018-09-26T10:35:21.567Z,15.49
2018-09-26T10:36:21.565Z,15.59
2018-09-26T10:37:21.566Z,15.70
2018-09-26T10:38:21.666Z,15.64
2018-09-26T10:39:21.571Z,15.37
2018-09-26T10:40:21.570Z,15.51
2018-09-26T10:41:21.570Z,15.55
2018-09-26T10:42:21.570Z,15.68
2018-09-26T10:43:21.572Z,15.86
2018-09-26T10:44:21.632Z,15.88
2018-09-26T10:45:21.573Z,15.76
2018-09-26T10:46:21.572Z,15.67
2018-09-26T10:47:21.575Z,15.70
2018-09-26T10:48:21.573Z,15.79
2018-09-26T10:49:21.574Z,15.95
2018-09-26T10:50:21.663Z,15.88
2018-09-26T10:51:21.574Z,15.95
2018-09-26T10:52:21.575Z,15.82
2018-09-26T10:53:21.576Z,15.84
2018-09-26T10:54:21.576Z,15.98
2018-09-26T10:55:21.576Z,16.15
2018-09-26T10:56:21.622Z,16.12
2018-09-26T10:57:21.579Z,16.04
2018-09-26T10:58:21.577Z,15.95
2018-09-26T10:59:21.579Z,15.98
2018-09-26T11:00:21.578Z,16.23
2018-09-26T11:01:21.578Z,16.29
2018-09-26T11:02:21.633Z,16.41
2018-09-26T11:03:21.579Z,16.15
2018-09-26T11:04:21.620Z,15.91
2018-09-26T11:05:21.578Z,15.97
2018-09-26T11:06:21.578Z,15.98
2018-09-26T11:07:21.580Z,15.94
2018-09-26T11:08:21.615Z,15.95
2018-09-26T11:09:21.580Z,16.04
2018-09-26T11:10:21.603Z,15.97
2018-09-26T11:11:21.584Z,16.10
2018-09-26T11:12:21.580Z,16.17
2018-09-26T11:13:21.580Z,16.05
2018-09-26T11:14:21.602Z,15.95
2018-09-26T11:15:21.637Z,16.01
2018-09-26T11:16:21.646Z,16.10
2018-09-26T11:17:21.581Z,16.02
2018-09-26T11:18:21.578Z,16.13
2018-09-26T11:19:21.579Z,16.15
2018-09-26T11:20:21.624Z,16.15
2018-09-26T11:21:21.650Z,16.23
2018-09-26T11:22:21.647Z,16.38
2018-09-26T11:23:21.577Z,16.41
2018-09-26T11:24:21.579Z,16.57
2018-09-26T11:25:21.579Z,16.54
2018-09-26T11:26:21.622Z,16.71
2018-09-26T11:27:21.578Z,16.75
2018-09-26T11:28:21.610Z,16.74
2018-09-26T11:29:21.579Z,16.83
2018-09-26T11:30:21.577Z,16.61
2018-09-26T11:31:21.575Z,16.68
2018-09-26T11:32:21.628Z,16.65
2018-09-26T11:33:21.615Z,16.76
2018-09-26T11:34:21.616Z,16.74
2018-09-26T11:35:21.576Z,16.90
2018-09-26T11:36:21.574Z,16.74
2018-09-26T11:37:21.575Z,16.78
2018-09-26T11:38:21.645Z,16.54
2018-09-26T11:39:21.574Z,16.60
2018-09-26T11:40:21.612Z,16.66
2018-09-26T11:41:21.575Z,16.84
2018-09-26T11:42:21.572Z,16.86
2018-09-26T11:43:21.577Z,16.83
2018-09-26T11:44:21.648Z,16.90
2018-09-26T11:45:21.572Z,16.91
2018-09-26T11:46:21.631Z,17.02
2018-09-26T11:47:21.571Z,17.04
2018-09-26T11:48:21.572Z,17.01
2018-09-26T11:49:21.573Z,16.99
2018-09-26T11:50:21.639Z,16.99
2018-09-26T11:51:21.572Z,16.99
2018-09-26T11:52:21.616Z,17.11
2018-09-26T11:53:21.572Z,17.14
2018-09-26T11:54:21.569Z,17.02
2018-09-26T11:55:21.571Z,17.01
2018-09-26T11:56:21.574Z,17.01
2018-09-26T11:57:21.571Z,16.99
2018-09-26T11:58:21.637Z,16.83
2018-09-26T11:59:21.569Z,16.84
2018-09-26T12:00:21.569Z,16.97
2018-09-26T12:01:21.570Z,16.90
2018-09-26T12:02:21.635Z,16.93
2018-09-26T12:03:21.568Z,16.99
2018-09-26T12:04:21.603Z,17.04
2018-09-26T12:05:21.568Z,17.14
2018-09-26T12:06:21.573Z,17.15
2018-09-26T12:07:21.573Z,17.22
2018-09-26T12:08:21.659Z,17.44
2018-09-26T12:09:21.566Z,17.39
2018-09-26T12:10:21.653Z,17.36
2018-09-26T12:11:21.564Z,17.29
2018-09-26T12:12:21.604Z,17.30
2018-09-26T12:13:21.565Z,17.29
2018-09-26T12:14:21.563Z,17.33
2018-09-26T12:15:21.563Z,17.42
2018-09-26T12:16:21.581Z,17.29
2018-09-26T12:17:21.564Z,17.30
2018-09-26T12:18:21.590Z,17.41
2018-09-26T12:19:21.584Z,17.54
2018-09-26T12:20:21.562Z,17.70
2018-09-26T12:21:30.354Z,17.71
2018-09-26T12:22:21.614Z,17.67
2018-09-26T12:23:21.563Z,17.72
2018-09-26T12:24:21.600Z,17.76
2018-09-26T12:25:21.634Z,17.67
2018-09-26T12:26:21.561Z,17.57
2018-09-26T12:27:21.557Z,17.71
2018-09-26T12:28:21.578Z,17.78
2018-09-26T12:29:21.558Z,17.82
2018-09-26T12:30:21.628Z,17.70
2018-09-26T12:31:21.563Z,17.79
2018-09-26T12:32:21.561Z,17.72
2018-09-26T12:33:21.559Z,17.72
2018-09-26T12:34:21.621Z,17.67
2018-09-26T12:35:21.557Z,17.71
2018-09-26T12:36:21.624Z,17.78
2018-09-26T12:37:21.557Z,17.82
2018-09-26T12:38:21.557Z,17.80
2018-09-26T12:39:21.559Z,17.90
2018-09-26T12:40:21.658Z,18.03
2018-09-26T12:41:21.558Z,18.03
2018-09-26T12:42:21.604Z,18.07
2018-09-26T12:43:21.556Z,18.01
2018-09-26T12:44:21.557Z,18.00
2018-09-26T12:45:21.555Z,18.04
2018-09-26T12:46:21.622Z,18.00
2018-09-26T12:47:21.634Z,17.97
2018-09-26T12:48:21.583Z,18.01
2018-09-26T12:49:21.554Z,18.19
2018-09-26T12:50:21.554Z,18.16
2018-09-26T12:51:21.554Z,18.26
2018-09-26T12:52:21.607Z,18.16
2018-09-26T12:53:21.584Z,18.19
2018-09-26T12:54:21.558Z,18.25
2018-09-26T12:55:21.553Z,18.35
2018-09-26T12:56:21.553Z,18.44
2018-09-26T12:57:21.554Z,18.43
2018-09-26T12:58:21.672Z,18.56
2018-09-26T12:59:21.554Z,18.62
2018-09-26T13:00:21.591Z,18.66
2018-09-26T13:01:21.554Z,18.80
2018-09-26T13:02:21.656Z,18.96
2018-09-26T13:03:21.613Z,18.93
2018-09-26T13:04:21.575Z,19.04
2018-09-26T13:05:21.554Z,18.92
2018-09-26T13:06:21.592Z,18.86
2018-09-26T13:07:21.553Z,18.71